Time,TemperatureF,DewpointF,PressureIn,WindDirection,WindDirectionDegrees,WindSpeedMPH,WindSpeedGustMPH,Humidity,HourlyPrecipIn,Conditions,Clouds,dailyrainin,SoftwareType,DateUTC
2013-09-30 00:01:00,48.0,45.8,30.15,SSW,206,0.0,0.0,92,0.00,,,0.01,Wunderground v.1.13,2013-09-30 04:01:00,
2013-09-30 00:02:00,47.9,45.7,30.15,SSW,206,0.0,0.0,92,0.00,,,0.01,Wunderground v.1.13,2013-09-30 04:02:00,
2013-09-30 00:04:00,47.8,45.6,30.15,SSW,206,0.0,0.0,92,0.00,,,0.01,Wunderground v.1.13,2013-09-30 04:04:00,
2013-09-30 00:06:00,47.7,45.5,30.15,SSW,206,0.0,0.0,92,0.00,,,0.00,Wunderground v.1.13,2013-09-30 04:06:00,
2013-09-30 00:07:00,47.6,45.4,30.15,SSW,206,0.0,0.0,92,0.00,,,0.00,Wunderground v.1.13,2013-09-30 04:07:00,
2013-09-30 00:12:00,47.8,45.6,30.15,SSW,206,0.0,0.0,92,0.00,,,0.00,Wunderground v.1.13,2013-09-30 04:12:00,
2013-09-30 00:17:00,48.0,46.1,30.15,SSW,206,0.0,0.0,93,0.00,,,0.00,Wunderground v.1.13,2013-09-30 04:17:00,
2013-09-30 00:23:00,48.0,46.1,30.15,SSW,206,0.0,0.0,93,0.00,,,0.00,Wunderground v.1.13,2013-09-30 04:23:00,
2013-09-30 00:28:00,47.9,46.0,30.15,SSW,206,0.0,0.0,93,0.00,,,0.00,Wunderground v.1.13,2013-09-30 04:28:00,
2013-09-30 00:33:00,47.7,45.5,30.14,SSW,206,0.0,0.0,92,0.00,,,0.00,Wunderground v.1.13,2013-09-30 04:33:00,
2013-09-30 00:39:00,47.5,45.3,30.14,SSW,206,0.0,0.0,92,0.00,,,0.00,Wunderground v.1.13,2013-09-30 04:39:00,
2013-09-30 00:44:00,47.3,45.4,30.14,SSW,206,0.0,0.0,93,0.00,,,0.00,Wunderground v.1.13,2013-09-30 04:44:00,
2013-09-30 00:50:00,47.3,45.4,30.14,SSW,206,0.0,0.0,93,0.00,,,0.00,Wunderground v.1.13,2013-09-30 04:50:00,
2013-09-30 00:55:00,47.2,45.0,30.14,SSW,206,0.0,0.0,92,0.00,,,0.00,Wunderground v.1.13,2013-09-30 04:55:00,
2013-09-30 01:00:00,47.3,45.4,30.14,SSW,206,0.0,0.0,93,0.00,,,0.00,Wunderground v.1.13,2013-09-30 05:00:00,
2013-09-30 01:05:00,47.2,45.3,30.14,SSW,206,0.0,0.0,93,0.00,,,0.00,Wunderground v.1.13,2013-09-30 05:05:00,
2013-09-30 01:11:00,46.9,45.0,30.14,SSW,206,0.0,0.0,93,0.00,,,0.00,Wunderground v.1.13,2013-09-30 05:11:00,
2013-09-30 01:16:00,46.8,44.9,30.14,SSW,206,0.0,0.0,93,0.00,,,0.00,Wunderground v.1.13,2013-09-30 05:16:00,
2013-09-30 01:21:00,46.5,44.6,30.14,SSW,206,0.0,0.0,93,0.00,,,0.00,Wunderground v.1.13,2013-09-30 05:21:00,
2013-09-30 01:27:00,46.4,44.2,30.14,SSW,206,0.0,0.0,92,0.00,,,0.00,Wunderground v.1.13,2013-09-30 05:27:00,
2013-09-30 01:32:00,46.4,44.5,30.14,SSW,206,0.0,0.0,93,0.00,,,0.00,Wunderground v.1.13,2013-09-30 05:32:00,
2013-09-30 01:38:00,46.1,44.2,30.14,SSW,206,0.0,0.0,93,0.00,,,0.00,Wunderground v.1.13,2013-09-30 05:38:00,
2013-09-30 01:43:00,46.0,43.8,30.13,SSW,206,0.0,0.0,92,0.00,,,0.00,Wunderground v.1.13,2013-09-30 05:43:00,
2013-09-30 01:49:00,45.9,44.0,30.13,SSW,206,0.0,0.0,93,0.00,,,0.00,Wunderground v.1.13,2013-09-30 05:49:00,
2013-09-30 01:54:00,45.6,43.7,30.13,SSW,206,0.0,0.0,93,0.00,,,0.00,Wunderground v.1.13,2013-09-30 05:54:00,
2013-09-30 02:00:00,45.4,43.2,30.13,SSW,206,0.0,0.0,92,0.00,,,0.00,Wunderground v.1.13,2013-09-30 06:00:00,
2013-09-30 02:05:00,45.2,43.0,30.13,SSW,206,0.0,0.0,92,0.00,,,0.00,Wunderground v.1.13,2013-09-30 06:05:00,
2013-09-30 02:10:00,45.1,43.2,30.13,SSW,206,0.0,0.0,93,0.00,,,0.00,Wunderground v.1.13,2013-09-30 06:10:00,
2013-09-30 02:15:00,45.3,43.4,30.13,SSW,206,0.0,0.0,93,0.00,,,0.00,Wunderground v.1.13,2013-09-30 06:15:00,
2013-09-30 02:20:00,45.2,43.3,30.13,SSW,206,0.0,0.0,93,0.00,,,0.00,Wunderground v.1.13,2013-09-30 06:20:00,
2013-09-30 02:25:00,45.0,43.1,30.13,SSW,206,0.0,0.0,93,0.00,,,0.00,Wunderground v.1.13,2013-09-30 06:25:00,
2013-09-30 02:30:00,45.0,43.1,30.13,SSW,206,0.0,0.0,93,0.00,,,0.00,Wunderground v.1.13,2013-09-30 06:30:00,
2013-09-30 02:35:00,45.0,43.1,30.13,SSW,206,0.0,0.0,93,0.00,,,0.00,Wunderground v.1.13,2013-09-30 06:35:00,
2013-09-30 02:40:00,45.0,43.1,30.13,SSW,206,0.0,0.0,93,0.00,,,0.00,Wunderground v.1.13,2013-09-30 06:40:00,
2013-09-30 02:45:00,45.0,43.1,30.13,SSW,206,0.0,0.0,93,0.00,,,0.00,Wunderground v.1.13,2013-09-30 06:45:00,
2013-09-30 02:50:00,44.9,43.0,30.13,SSW,206,0.0,0.0,93,0.00,,,0.00,Wunderground v.1.13,2013-09-30 06:50:00,
2013-09-30 02:55:00,45.0,43.1,30.13,SSW,206,0.0,0.0,93,0.00,,,0.00,Wunderground v.1.13,2013-09-30 06:55:00,
2013-09-30 03:00:00,45.3,43.4,30.13,SSW,206,0.0,0.0,93,0.00,,,0.00,Wunderground v.1.13,2013-09-30 07:00:00,
2013-09-30 03:05:00,45.4,43.5,30.13,SSW,206,0.0,0.0,93,0.00,,,0.00,Wunderground v.1.13,2013-09-30 07:05:00,
2013-09-30 03:10:00,45.4,43.5,30.13,SSW,206,0.0,0.0,93,0.00,,,0.00,Wunderground v.1.13,2013-09-30 07:10:00,
2013-09-30 03:15:00,45.3,43.4,30.12,SSW,206,0.0,0.0,93,0.00,,,0.00,Wunderground v.1.13,2013-09-30 07:15:00,
2013-09-30 03:20:00,45.0,43.1,30.12,SSW,206,0.0,0.0,93,0.00,,,0.00,Wunderground v.1.13,2013-09-30 07:20:00,
2013-09-30 03:25:00,45.0,43.1,30.12,SSW,206,0.0,0.0,93,0.00,,,0.00,Wunderground v.1.13,2013-09-30 07:25:00,
2013-09-30 03:30:00,44.7,42.8,30.12,SSW,206,0.0,0.0,93,0.00,,,0.00,Wunderground v.1.13,2013-09-30 07:30:00,
2013-09-30 03:35:00,44.6,42.7,30.12,SSW,206,0.0,0.0,93,0.00,,,0.00,Wunderground v.1.13,2013-09-30 07:35:00,
2013-09-30 03:40:00,44.5,42.6,30.12,SSW,206,0.0,0.0,93,0.00,,,0.00,Wunderground v.1.13,2013-09-30 07:40:00,
2013-09-30 03:46:00,44.2,42.3,30.12,SSW,206,0.0,0.0,93,0.00,,,0.00,Wunderground v.1.13,2013-09-30 07:46:00,
2013-09-30 03:51:00,44.0,42.1,30.12,SSW,206,0.0,0.0,93,0.00,,,0.00,Wunderground v.1.13,2013-09-30 07:51:00,
2013-09-30 03:56:00,43.8,41.9,30.12,SSW,206,0.0,0.0,93,0.00,,,0.00,Wunderground v.1.13,2013-09-30 07:56:00,
2013-09-30 04:01:00,43.6,41.7,30.12,SSW,206,0.0,0.0,93,0.00,,,0.00,Wunderground v.1.13,2013-09-30 08:01:00,
2013-09-30 04:06:00,43.3,41.4,30.12,SSW,206,0.0,0.0,93,0.00,,,0.00,Wunderground v.1.13,2013-09-30 08:06:00,
2013-09-30 04:11:00,43.2,41.3,30.12,SSW,206,0.0,0.0,93,0.00,,,0.00,Wunderground v.1.13,2013-09-30 08:11:00,
2013-09-30 04:16:00,42.9,41.0,30.12,SSW,206,0.0,0.0,93,0.00,,,0.00,Wunderground v.1.13,2013-09-30 08:16:00,
2013-09-30 04:21:00,42.9,41.0,30.12,SSW,206,0.0,0.0,93,0.00,,,0.00,Wunderground v.1.13,2013-09-30 08:21:00,
2013-09-30 04:26:00,42.9,41.0,30.12,SSW,206,0.0,0.0,93,0.00,,,0.00,Wunderground v.1.13,2013-09-30 08:26:00,
2013-09-30 04:31:00,42.9,41.0,30.12,SSW,206,0.0,0.0,93,0.00,,,0.00,Wunderground v.1.13,2013-09-30 08:31:00,
2013-09-30 04:36:00,42.8,40.9,30.12,SSW,206,0.0,0.0,93,0.00,,,0.00,Wunderground v.1.13,2013-09-30 08:36:00,
2013-09-30 04:41:00,42.9,41.0,30.12,SSW,206,0.0,0.0,93,0.00,,,0.00,Wunderground v.1.13,2013-09-30 08:41:00,
2013-09-30 04:47:00,43.1,41.2,30.12,SSW,206,0.0,0.0,93,0.00,,,0.00,Wunderground v.1.13,2013-09-30 08:47:00,
2013-09-30 04:52:00,43.1,41.2,30.12,SSW,206,0.0,0.0,93,0.00,,,0.00,Wunderground v.1.13,2013-09-30 08:52:00,
2013-09-30 04:57:00,43.0,41.1,30.12,SSW,206,0.0,0.0,93,0.00,,,0.00,Wunderground v.1.13,2013-09-30 08:57:00,
2013-09-30 05:02:00,43.1,41.2,30.12,SSW,206,0.0,0.0,93,0.00,,,0.00,Wunderground v.1.13,2013-09-30 09:02:00,
2013-09-30 05:07:00,43.1,41.2,30.13,SSW,206,0.0,0.0,93,0.00,,,0.00,Wunderground v.1.13,2013-09-30 09:07:00,
2013-09-30 05:12:00,43.1,41.2,30.12,SSW,206,0.0,0.0,93,0.00,,,0.00,Wunderground v.1.13,2013-09-30 09:12:00,
2013-09-30 05:17:00,42.8,40.9,30.12,SSW,206,0.0,0.0,93,0.00,,,0.00,Wunderground v.1.13,2013-09-30 09:17:00,
2013-09-30 05:22:00,42.5,40.6,30.12,SSW,206,0.0,0.0,93,0.00,,,0.00,Wunderground v.1.13,2013-09-30 09:22:00,
2013-09-30 05:27:00,42.3,40.4,30.12,SSW,206,0.0,0.0,93,0.00,,,0.00,Wunderground v.1.13,2013-09-30 09:27:00,
2013-09-30 05:32:00,42.1,40.2,30.13,SSW,206,0.0,0.0,93,0.00,,,0.00,Wunderground v.1.13,2013-09-30 09:32:00,
2013-09-30 05:37:00,41.9,40.0,30.13,SSW,206,0.0,0.0,93,0.00,,,0.00,Wunderground v.1.13,2013-09-30 09:37:00,
2013-09-30 05:42:00,41.6,39.7,30.13,SSW,206,0.0,0.0,93,0.00,,,0.00,Wunderground v.1.13,2013-09-30 09:42:00,
2013-09-30 05:47:00,41.4,39.5,30.13,SSW,206,0.0,0.0,93,0.00,,,0.00,Wunderground v.1.13,2013-09-30 09:47:00,
2013-09-30 05:52:00,41.2,39.3,30.13,SSW,206,0.0,0.0,93,0.00,,,0.00,Wunderground v.1.13,2013-09-30 09:52:00,
2013-09-30 05:57:00,41.1,39.2,30.13,SSW,206,0.0,0.0,93,0.00,,,0.00,Wunderground v.1.13,2013-09-30 09:57:00,
2013-09-30 06:02:00,41.4,39.5,30.13,SSW,206,0.0,0.0,93,0.00,,,0.00,Wunderground v.1.13,2013-09-30 10:02:00,
2013-09-30 06:07:00,41.7,39.8,30.13,SSW,206,0.0,0.0,93,0.00,,,0.00,Wunderground v.1.13,2013-09-30 10:07:00,
2013-09-30 06:12:00,41.8,39.9,30.13,SSW,206,0.0,0.0,93,0.00,,,0.00,Wunderground v.1.13,2013-09-30 10:12:00,
2013-09-30 06:17:00,41.8,39.9,30.13,SSW,206,0.0,0.0,93,0.00,,,0.00,Wunderground v.1.13,2013-09-30 10:17:00,
2013-09-30 06:22:00,41.7,39.8,30.13,SSW,206,0.0,0.0,93,0.00,,,0.00,Wunderground v.1.13,2013-09-30 10:22:00,
2013-09-30 06:27:00,41.5,39.6,30.13,SSW,206,0.0,0.0,93,0.00,,,0.00,Wunderground v.1.13,2013-09-30 10:27:00,
2013-09-30 06:32:00,41.4,39.5,30.14,SSW,206,0.0,0.0,93,0.00,,,0.00,Wunderground v.1.13,2013-09-30 10:32:00,
2013-09-30 06:37:00,41.4,39.5,30.14,SSW,206,0.0,0.0,93,0.00,,,0.00,Wunderground v.1.13,2013-09-30 10:37:00,
2013-09-30 06:42:00,41.4,39.5,30.14,SSW,206,0.0,0.0,93,0.00,,,0.00,Wunderground v.1.13,2013-09-30 10:42:00,
2013-09-30 06:47:00,41.5,39.6,30.14,SSW,206,0.0,0.0,93,0.00,,,0.00,Wunderground v.1.13,2013-09-30 10:47:00,
2013-09-30 06:52:00,41.6,39.7,30.14,SSW,206,0.0,0.0,93,0.00,,,0.00,Wunderground v.1.13,2013-09-30 10:52:00,
2013-09-30 06:58:00,41.6,39.7,30.14,SSW,206,0.0,0.0,93,0.00,,,0.00,Wunderground v.1.13,2013-09-30 10:58:00,
2013-09-30 07:03:00,41.8,39.9,30.14,SSW,206,0.0,0.0,93,0.00,,,0.00,Wunderground v.1.13,2013-09-30 11:03:00,
2013-09-30 07:08:00,41.9,40.0,30.14,SSW,206,0.0,0.0,93,0.00,,,0.00,Wunderground v.1.13,2013-09-30 11:08:00,
2013-09-30 07:13:00,42.1,40.2,30.14,SSW,206,0.0,0.0,93,0.00,,,0.00,Wunderground v.1.13,2013-09-30 11:13:00,
2013-09-30 07:18:00,42.2,40.3,30.14,SSW,206,0.0,0.0,93,0.00,,,0.00,Wunderground v.1.13,2013-09-30 11:18:00,
2013-09-30 07:23:00,42.3,40.4,30.15,SSW,206,0.0,0.0,93,0.00,,,0.00,Wunderground v.1.13,2013-09-30 11:23:00,
2013-09-30 07:28:00,42.5,40.6,30.14,SSW,206,0.0,0.0,93,0.00,,,0.00,Wunderground v.1.13,2013-09-30 11:28:00,
2013-09-30 07:33:00,42.5,40.6,30.14,SSW,206,0.0,0.0,93,0.00,,,0.00,Wunderground v.1.13,2013-09-30 11:33:00,
2013-09-30 07:38:00,42.5,40.6,30.15,SSW,206,0.0,0.0,93,0.00,,,0.00,Wunderground v.1.13,2013-09-30 11:38:00,
2013-09-30 07:43:00,42.7,40.8,30.15,SSW,206,0.0,0.0,93,0.00,,,0.00,Wunderground v.1.13,2013-09-30 11:43:00,
2013-09-30 07:48:00,42.7,40.8,30.15,SSW,206,0.0,0.0,93,0.00,,,0.00,Wunderground v.1.13,2013-09-30 11:48:00,
2013-09-30 07:53:00,42.9,41.0,30.14,SSW,206,0.0,0.0,93,0.00,,,0.00,Wunderground v.1.13,2013-09-30 11:53:00,
2013-09-30 07:58:00,43.1,41.2,30.14,SSW,206,0.0,0.0,93,0.00,,,0.00,Wunderground v.1.13,2013-09-30 11:58:00,
2013-09-30 08:03:00,43.2,41.3,30.14,SSW,206,0.0,0.0,93,0.00,,,0.00,Wunderground v.1.13,2013-09-30 12:03:00,
2013-09-30 08:08:00,43.4,41.5,30.14,SSW,206,0.0,0.0,93,0.00,,,0.00,Wunderground v.1.13,2013-09-30 12:08:00,
2013-09-30 08:13:00,43.6,41.7,30.14,SSW,206,0.0,0.0,93,0.00,,,0.00,Wunderground v.1.13,2013-09-30 12:13:00,
2013-09-30 08:18:00,44.0,42.4,30.14,SSW,206,1.0,2.0,94,0.00,,,0.00,Wunderground v.1.13,2013-09-30 12:18:00,
2013-09-30 08:23:00,44.3,42.4,30.14,SSW,206,0.0,1.0,93,0.00,,,0.00,Wunderground v.1.13,2013-09-30 12:23:00,
2013-09-30 08:28:00,44.5,42.9,30.14,SSW,206,0.0,0.0,94,0.00,,,0.00,Wunderground v.1.13,2013-09-30 12:28:00,
2013-09-30 08:34:00,44.7,43.1,30.14,SSW,206,0.0,0.0,94,0.00,,,0.00,Wunderground v.1.13,2013-09-30 12:34:00,
2013-09-30 08:39:00,44.8,43.2,30.13,SSW,206,0.0,0.0,94,0.00,,,0.00,Wunderground v.1.13,2013-09-30 12:39:00,
2013-09-30 08:44:00,45.0,43.4,30.13,SSW,206,0.0,0.0,94,0.00,,,0.00,Wunderground v.1.13,2013-09-30 12:44:00,
2013-09-30 08:49:00,45.2,43.6,30.13,SSW,206,0.0,1.0,94,0.00,,,0.00,Wunderground v.1.13,2013-09-30 12:49:00,
2013-09-30 08:54:00,45.4,43.8,30.13,SSW,206,0.0,0.0,94,0.00,,,0.00,Wunderground v.1.13,2013-09-30 12:54:00,
2013-09-30 08:59:00,45.6,44.0,30.13,SSW,206,0.0,1.0,94,0.00,,,0.00,Wunderground v.1.13,2013-09-30 12:59:00,
2013-09-30 09:04:00,45.8,44.2,30.13,SSW,206,0.0,2.0,94,0.00,,,0.00,Wunderground v.1.13,2013-09-30 13:04:00,
2013-09-30 09:09:00,46.2,44.6,30.14,SSW,206,1.0,1.0,94,0.00,,,0.00,Wunderground v.1.13,2013-09-30 13:09:00,
2013-09-30 09:14:00,46.3,44.7,30.14,SSW,206,0.0,1.0,94,0.00,,,0.00,Wunderground v.1.13,2013-09-30 13:14:00,
2013-09-30 09:19:00,46.4,44.8,30.14,SSW,206,0.0,1.0,94,0.00,,,0.00,Wunderground v.1.13,2013-09-30 13:19:00,
2013-09-30 09:24:00,46.6,45.0,30.14,SSW,206,0.0,0.0,94,0.00,,,0.00,Wunderground v.1.13,2013-09-30 13:24:00,
2013-09-30 09:29:00,46.9,45.3,30.14,SSW,206,1.0,2.0,94,0.00,,,0.00,Wunderground v.1.13,2013-09-30 13:29:00,
2013-09-30 09:34:00,47.2,45.6,30.14,West,273,0.0,3.0,94,0.00,,,0.00,Wunderground v.1.13,2013-09-30 13:34:00,
2013-09-30 09:39:00,47.8,46.2,30.13,West,275,1.0,2.0,94,0.00,,,0.00,Wunderground v.1.13,2013-09-30 13:39:00,
2013-09-30 09:44:00,47.9,46.3,30.13,West,275,2.0,2.0,94,0.00,,,0.00,Wunderground v.1.13,2013-09-30 13:44:00,
2013-09-30 09:49:00,48.1,46.5,30.13,NNW,342,0.0,1.0,94,0.00,,,0.00,Wunderground v.1.13,2013-09-30 13:49:00,
2013-09-30 09:54:00,48.4,46.8,30.12,NNE,18,2.0,4.0,94,0.00,,,0.00,Wunderground v.1.13,2013-09-30 13:54:00,
2013-09-30 09:59:00,48.8,47.2,30.12,NNE,20,0.0,2.0,94,0.00,,,0.00,Wunderground v.1.13,2013-09-30 13:59:00,
2013-09-30 10:04:00,49.3,47.6,30.13,NNE,19,0.0,2.0,94,0.00,,,0.00,Wunderground v.1.13,2013-09-30 14:04:00,
2013-09-30 10:09:00,50.2,48.5,30.13,NNE,24,1.0,2.0,94,0.00,,,0.00,Wunderground v.1.13,2013-09-30 14:09:00,
2013-09-30 10:14:00,50.6,48.9,30.12,North,360,0.0,2.0,94,0.00,,,0.00,Wunderground v.1.13,2013-09-30 14:14:00,
2013-09-30 10:19:00,50.6,48.9,30.12,North,9,1.0,2.0,94,0.00,,,0.00,Wunderground v.1.13,2013-09-30 14:19:00,
2013-09-30 10:24:00,50.9,49.2,30.12,North,9,0.0,0.0,94,0.00,,,0.01,Wunderground v.1.13,2013-09-30 14:24:00,
2013-09-30 10:29:00,51.5,49.8,30.12,North,9,0.0,0.0,94,0.00,,,0.01,Wunderground v.1.13,2013-09-30 14:29:00,
2013-09-30 10:34:00,52.0,50.3,30.11,North,360,2.0,2.0,94,0.00,,,0.01,Wunderground v.1.13,2013-09-30 14:34:00,
2013-09-30 10:39:00,52.5,50.8,30.11,North,5,0.0,1.0,94,0.00,,,0.01,Wunderground v.1.13,2013-09-30 14:39:00,
2013-09-30 10:44:00,53.3,51.3,30.11,North,360,0.0,1.0,93,0.00,,,0.01,Wunderground v.1.13,2013-09-30 14:44:00,
2013-09-30 10:49:00,54.6,52.3,30.11,North,360,0.0,0.0,92,0.00,,,0.01,Wunderground v.1.13,2013-09-30 14:49:00,
2013-09-30 10:54:00,55.3,51.8,30.10,NNW,331,0.0,3.0,88,0.00,,,0.01,Wunderground v.1.13,2013-09-30 14:54:00,
2013-09-30 10:59:00,55.9,51.8,30.10,North,5,0.0,3.0,86,0.00,,,0.01,Wunderground v.1.13,2013-09-30 14:59:00,
2013-09-30 11:04:00,56.7,51.9,30.10,North,9,0.0,3.0,84,0.00,,,0.01,Wunderground v.1.13,2013-09-30 15:04:00,
2013-09-30 11:09:00,57.8,52.3,30.10,North,9,0.0,2.0,82,0.00,,,0.01,Wunderground v.1.13,2013-09-30 15:09:00,
2013-09-30 11:14:00,58.7,52.2,30.10,North,9,1.0,2.0,79,0.00,,,0.01,Wunderground v.1.13,2013-09-30 15:14:00,
2013-09-30 11:19:00,59.3,52.4,30.10,North,10,0.0,2.0,78,0.00,,,0.01,Wunderground v.1.13,2013-09-30 15:19:00,
2013-09-30 11:24:00,59.9,52.0,30.09,SE,135,2.0,4.0,75,0.00,,,0.01,Wunderground v.1.13,2013-09-30 15:24:00,
2013-09-30 11:29:00,60.5,52.5,30.09,SE,138,0.0,2.0,75,0.00,,,0.01,Wunderground v.1.13,2013-09-30 15:29:00,
2013-09-30 11:34:00,61.1,53.1,30.09,NNE,15,0.0,2.0,75,0.00,,,0.01,Wunderground v.1.13,2013-09-30 15:34:00,
2013-09-30 11:39:00,61.9,53.9,30.09,North,9,0.0,2.0,75,0.00,,,0.01,Wunderground v.1.13,2013-09-30 15:39:00,
2013-09-30 11:44:00,62.5,54.5,30.09,North,360,1.0,2.0,75,0.00,,,0.01,Wunderground v.1.13,2013-09-30 15:44:00,
2013-09-30 11:49:00,63.0,53.1,30.09,NNE,14,1.0,1.0,70,0.00,,,0.01,Wunderground v.1.13,2013-09-30 15:49:00,
2013-09-30 11:54:00,63.3,53.0,30.08,NNE,13,0.0,3.0,69,0.00,,,0.01,Wunderground v.1.13,2013-09-30 15:54:00,
2013-09-30 11:59:00,63.8,53.8,30.08,NNE,13,0.0,1.0,70,0.00,,,0.01,Wunderground v.1.13,2013-09-30 15:59:00,
2013-09-30 12:04:00,64.5,53.7,30.08,NNE,19,0.0,4.0,68,0.00,,,0.01,Wunderground v.1.13,2013-09-30 16:04:00,
2013-09-30 12:09:00,63.9,52.7,30.07,NE,36,0.0,7.0,67,0.00,,,0.01,Wunderground v.1.13,2013-09-30 16:09:00,
2013-09-30 12:14:00,63.9,53.9,30.07,SSW,203,0.0,4.0,70,0.00,,,0.01,Wunderground v.1.13,2013-09-30 16:14:00,
2013-09-30 12:19:00,64.7,54.7,30.08,East,88,0.0,2.0,70,0.00,,,0.01,Wunderground v.1.13,2013-09-30 16:19:00,
2013-09-30 12:24:00,65.2,54.8,30.07,North,360,0.0,4.0,69,0.00,,,0.01,Wunderground v.1.13,2013-09-30 16:24:00,
2013-09-30 12:29:00,65.9,53.8,30.07,North,355,0.0,4.0,65,0.00,,,0.01,Wunderground v.1.13,2013-09-30 16:29:00,
2013-09-30 12:34:00,66.4,55.5,30.07,NNE,19,0.0,2.0,68,0.00,,,0.01,Wunderground v.1.13,2013-09-30 16:34:00,
2013-09-30 12:39:00,66.8,54.7,30.07,WSW,240,2.0,3.0,65,0.00,,,0.01,Wunderground v.1.13,2013-09-30 16:39:00,
2013-09-30 12:44:00,66.3,53.3,30.07,North,355,0.0,4.0,63,0.00,,,0.01,Wunderground v.1.13,2013-09-30 16:44:00,
2013-09-30 12:50:00,66.0,53.9,30.06,North,355,0.0,1.0,65,0.00,,,0.01,Wunderground v.1.13,2013-09-30 16:50:00,
2013-09-30 12:55:00,65.8,53.3,30.06,North,355,0.0,0.0,64,0.00,,,0.01,Wunderground v.1.13,2013-09-30 16:55:00,
2013-09-30 13:00:00,65.2,53.1,30.06,North,355,0.0,0.0,65,0.00,,,0.01,Wunderground v.1.13,2013-09-30 17:00:00,
2013-09-30 13:05:00,64.3,54.3,30.06,North,355,0.0,0.0,70,0.00,,,0.01,Wunderground v.1.13,2013-09-30 17:05:00,
2013-09-30 13:10:00,63.8,55.0,30.06,North,355,0.0,0.0,73,0.00,,,0.01,Wunderground v.1.13,2013-09-30 17:10:00,
2013-09-30 13:15:00,63.3,55.2,30.05,North,355,0.0,0.0,75,0.00,,,0.01,Wunderground v.1.13,2013-09-30 17:15:00,
2013-09-30 13:21:00,63.3,55.6,30.05,North,355,1.0,1.0,76,0.00,,,0.01,Wunderground v.1.13,2013-09-30 17:21:00,
2013-09-30 13:26:00,64.5,55.7,30.05,North,355,0.0,1.0,73,0.00,,,0.01,Wunderground v.1.13,2013-09-30 17:26:00,
2013-09-30 13:31:00,66.0,53.5,30.04,SE,129,0.0,2.0,64,0.00,,,0.01,Wunderground v.1.13,2013-09-30 17:31:00,
2013-09-30 13:36:00,67.2,53.7,30.04,ESE,108,0.0,2.0,62,0.00,,,0.01,Wunderground v.1.13,2013-09-30 17:36:00,
2013-09-30 13:41:00,67.9,53.0,30.05,WSW,256,5.0,5.0,59,0.00,,,0.01,Wunderground v.1.13,2013-09-30 17:41:00,
2013-09-30 13:46:00,68.5,53.1,30.04,WNW,284,3.0,5.0,58,0.00,,,0.01,Wunderground v.1.13,2013-09-30 17:46:00,
2013-09-30 13:51:00,68.8,52.9,30.04,SW,234,4.0,4.0,57,0.00,,,0.01,Wunderground v.1.13,2013-09-30 17:51:00,
2013-09-30 13:56:00,68.3,52.5,30.04,SSW,213,2.0,4.0,57,0.00,,,0.01,Wunderground v.1.13,2013-09-30 17:56:00,
2013-09-30 14:01:00,68.1,53.7,30.04,NNE,19,0.0,2.0,60,0.00,,,0.01,Wunderground v.1.13,2013-09-30 18:01:00,
2013-09-30 14:06:00,68.4,54.9,30.04,WNW,288,3.0,3.0,62,0.00,,,0.01,Wunderground v.1.13,2013-09-30 18:06:00,
2013-09-30 14:11:00,68.6,53.2,30.04,West,271,3.0,3.0,58,0.00,,,0.01,Wunderground v.1.13,2013-09-30 18:11:00,
2013-09-30 14:16:00,68.8,53.9,30.04,West,270,4.0,5.0,59,0.00,,,0.01,Wunderground v.1.13,2013-09-30 18:16:00,
2013-09-30 14:21:00,69.0,52.6,30.03,South,191,4.0,4.0,56,0.00,,,0.01,Wunderground v.1.13,2013-09-30 18:21:00,
2013-09-30 14:27:00,69.1,52.7,30.03,SW,236,1.0,3.0,56,0.00,,,0.01,Wunderground v.1.13,2013-09-30 18:27:00,
2013-09-30 14:32:00,69.4,53.0,30.03,South,182,0.0,2.0,56,0.00,,,0.01,Wunderground v.1.13,2013-09-30 18:32:00,
2013-09-30 14:37:00,70.0,54.1,30.03,West,276,0.0,4.0,57,0.00,,,0.01,Wunderground v.1.13,2013-09-30 18:37:00,
2013-09-30 14:42:00,70.6,52.6,30.03,West,279,1.0,2.0,53,0.00,,,0.01,Wunderground v.1.13,2013-09-30 18:42:00,
2013-09-30 14:47:00,70.6,53.6,30.03,WSW,247,3.0,3.0,55,0.00,,,0.01,Wunderground v.1.13,2013-09-30 18:47:00,
2013-09-30 14:52:00,70.6,53.1,30.03,West,277,0.0,2.0,54,0.00,,,0.01,Wunderground v.1.13,2013-09-30 18:52:00,
2013-09-30 14:57:00,70.7,53.7,30.03,West,275,2.0,5.0,55,0.00,,,0.01,Wunderground v.1.13,2013-09-30 18:57:00,
2013-09-30 15:02:00,70.1,53.2,30.03,South,172,0.0,3.0,55,0.00,,,0.01,Wunderground v.1.13,2013-09-30 19:02:00,
2013-09-30 15:07:00,70.0,53.6,30.02,NW,322,2.0,2.0,56,0.00,,,0.01,Wunderground v.1.13,2013-09-30 19:07:00,
2013-09-30 15:12:00,70.4,54.9,30.02,WSW,248,1.0,5.0,58,0.00,,,0.01,Wunderground v.1.13,2013-09-30 19:12:00,
2013-09-30 15:17:00,70.7,56.1,30.02,WSW,248,1.0,2.0,60,0.00,,,0.01,Wunderground v.1.13,2013-09-30 19:17:00,
2013-09-30 15:22:00,70.8,53.3,30.02,NNW,342,0.0,3.0,54,0.00,,,0.01,Wunderground v.1.13,2013-09-30 19:22:00,
2013-09-30 15:28:00,70.8,53.3,30.01,NW,312,0.0,2.0,54,0.00,,,0.01,Wunderground v.1.13,2013-09-30 19:28:00,
2013-09-30 15:33:00,70.7,56.1,30.01,NW,311,0.0,1.0,60,0.00,,,0.01,Wunderground v.1.13,2013-09-30 19:33:00,
2013-09-30 15:38:00,70.5,54.5,30.01,SSW,209,0.0,4.0,57,0.00,,,0.01,Wunderground v.1.13,2013-09-30 19:38:00,
2013-09-30 15:43:00,70.4,56.8,30.01,SSW,209,0.0,1.0,62,0.00,,,0.01,Wunderground v.1.13,2013-09-30 19:43:00,
2013-09-30 15:48:00,69.8,56.2,30.01,SSW,209,0.0,2.0,62,0.00,,,0.01,Wunderground v.1.13,2013-09-30 19:48:00,
2013-09-30 15:53:00,69.6,56.0,30.01,SSW,209,0.0,1.0,62,0.00,,,0.01,Wunderground v.1.13,2013-09-30 19:53:00,
2013-09-30 15:58:00,69.2,55.6,30.01,SSW,209,0.0,1.0,62,0.00,,,0.01,Wunderground v.1.13,2013-09-30 19:58:00,
2013-09-30 16:04:00,68.4,56.2,30.01,SSW,209,1.0,2.0,65,0.00,,,0.01,Wunderground v.1.13,2013-09-30 20:04:00,
2013-09-30 16:09:00,67.9,55.3,30.01,SSW,209,1.0,2.0,64,0.00,,,0.01,Wunderground v.1.13,2013-09-30 20:09:00,
2013-09-30 16:14:00,67.4,55.6,30.01,SSW,209,0.0,1.0,66,0.00,,,0.01,Wunderground v.1.13,2013-09-30 20:14:00,
2013-09-30 16:19:00,66.7,55.0,30.01,SSW,209,0.0,1.0,66,0.00,,,0.01,Wunderground v.1.13,2013-09-30 20:19:00,
2013-09-30 16:24:00,66.0,54.7,30.01,SSW,209,1.0,2.0,67,0.00,,,0.01,Wunderground v.1.13,2013-09-30 20:24:00,
2013-09-30 16:29:00,65.5,55.1,30.01,SSW,209,2.0,2.0,69,0.00,,,0.01,Wunderground v.1.13,2013-09-30 20:29:00,
2013-09-30 16:34:00,65.2,54.8,30.01,SSW,209,0.0,2.0,69,0.00,,,0.01,Wunderground v.1.13,2013-09-30 20:34:00,
2013-09-30 16:39:00,64.9,54.9,30.01,SSW,209,1.0,3.0,70,0.00,,,0.01,Wunderground v.1.13,2013-09-30 20:39:00,
2013-09-30 16:44:00,64.8,54.8,30.01,SSW,209,1.0,2.0,70,0.00,,,0.01,Wunderground v.1.13,2013-09-30 20:44:00,
2013-09-30 16:50:00,64.3,54.3,30.01,SSW,209,0.0,1.0,70,0.00,,,0.01,Wunderground v.1.13,2013-09-30 20:50:00,
2013-09-30 16:55:00,63.7,54.5,30.01,SSW,209,0.0,1.0,72,0.00,,,0.01,Wunderground v.1.13,2013-09-30 20:55:00,
2013-09-30 17:00:00,63.1,53.9,30.01,SSW,209,2.0,2.0,72,0.00,,,0.01,Wunderground v.1.13,2013-09-30 21:00:00,
2013-09-30 17:05:00,62.2,53.8,30.01,SSW,209,0.0,1.0,74,0.00,,,0.01,Wunderground v.1.13,2013-09-30 21:05:00,
2013-09-30 17:10:00,61.4,53.8,30.00,SSW,209,2.0,2.0,76,0.00,,,0.01,Wunderground v.1.13,2013-09-30 21:10:00,
2013-09-30 17:15:00,60.3,53.4,30.00,SSW,209,2.0,2.0,78,0.00,,,0.01,Wunderground v.1.13,2013-09-30 21:15:00,
2013-09-30 17:21:00,59.4,52.9,30.00,SSW,209,2.0,3.0,79,0.00,,,0.01,Wunderground v.1.13,2013-09-30 21:21:00,
2013-09-30 17:26:00,59.0,53.2,30.00,SSW,209,0.0,3.0,81,0.00,,,0.01,Wunderground v.1.13,2013-09-30 21:26:00,
2013-09-30 17:31:00,58.9,52.7,30.00,SSW,209,0.0,2.0,80,0.00,,,0.01,Wunderground v.1.13,2013-09-30 21:31:00,
2013-09-30 17:36:00,58.6,52.4,30.00,SSW,209,0.0,1.0,80,0.00,,,0.01,Wunderground v.1.13,2013-09-30 21:36:00,
2013-09-30 17:41:00,58.6,52.4,30.00,SSW,209,0.0,0.0,80,0.00,,,0.01,Wunderground v.1.13,2013-09-30 21:41:00,
2013-09-30 17:46:00,58.5,52.4,30.00,SSW,209,0.0,0.0,80,0.00,,,0.01,Wunderground v.1.13,2013-09-30 21:46:00,
2013-09-30 17:51:00,58.4,52.3,30.01,SSW,209,0.0,0.0,80,0.00,,,0.01,Wunderground v.1.13,2013-09-30 21:51:00,
2013-09-30 17:56:00,58.3,52.5,30.01,SSW,209,0.0,0.0,81,0.00,,,0.01,Wunderground v.1.13,2013-09-30 21:56:00,
2013-09-30 18:01:00,58.0,52.2,30.01,SSW,209,0.0,0.0,81,0.00,,,0.01,Wunderground v.1.13,2013-09-30 22:01:00,
2013-09-30 18:07:00,57.7,51.9,30.01,SSW,209,0.0,0.0,81,0.00,,,0.01,Wunderground v.1.13,2013-09-30 22:07:00,
2013-09-30 18:12:00,57.5,52.7,30.01,SSW,209,0.0,0.0,84,0.00,,,0.01,Wunderground v.1.13,2013-09-30 22:12:00,
2013-09-30 18:17:00,57.1,52.3,30.01,SSW,209,0.0,0.0,84,0.00,,,0.01,Wunderground v.1.13,2013-09-30 22:17:00,
2013-09-30 18:22:00,56.8,52.3,30.01,SSW,209,0.0,0.0,85,0.00,,,0.01,Wunderground v.1.13,2013-09-30 22:22:00,
2013-09-30 18:27:00,56.4,51.6,30.01,SSW,209,0.0,0.0,84,0.00,,,0.01,Wunderground v.1.13,2013-09-30 22:27:00,
2013-09-30 18:32:00,55.9,51.1,30.02,SSW,209,0.0,0.0,84,0.00,,,0.01,Wunderground v.1.13,2013-09-30 22:32:00,
2013-09-30 18:37:00,55.5,51.1,30.01,SSW,209,0.0,0.0,85,0.00,,,0.01,Wunderground v.1.13,2013-09-30 22:37:00,
2013-09-30 18:42:00,55.2,51.1,30.02,SSW,209,0.0,0.0,86,0.00,,,0.01,Wunderground v.1.13,2013-09-30 22:42:00,
2013-09-30 18:47:00,55.0,51.2,30.02,SSW,209,0.0,0.0,87,0.00,,,0.01,Wunderground v.1.13,2013-09-30 22:47:00,
2013-09-30 18:52:00,54.8,51.0,30.01,SSW,209,0.0,0.0,87,0.00,,,0.01,Wunderground v.1.13,2013-09-30 22:52:00,
2013-09-30 18:57:00,54.5,50.7,30.01,SSW,209,0.0,0.0,87,0.00,,,0.01,Wunderground v.1.13,2013-09-30 22:57:00,
2013-09-30 19:02:00,54.2,50.4,30.01,SSW,209,0.0,0.0,87,0.00,,,0.01,Wunderground v.1.13,2013-09-30 23:02:00,
2013-09-30 19:07:00,53.8,50.0,30.01,SSW,209,0.0,0.0,87,0.00,,,0.01,Wunderground v.1.13,2013-09-30 23:07:00,
2013-09-30 19:12:00,53.5,50.0,30.01,SSW,209,0.0,0.0,88,0.00,,,0.01,Wunderground v.1.13,2013-09-30 23:12:00,
2013-09-30 19:17:00,53.5,50.3,30.01,SSW,209,0.0,0.0,89,0.00,,,0.01,Wunderground v.1.13,2013-09-30 23:17:00,
2013-09-30 19:22:00,53.4,50.2,30.02,SSW,209,0.0,0.0,89,0.00,,,0.01,Wunderground v.1.13,2013-09-30 23:22:00,
2013-09-30 19:27:00,53.2,50.0,30.02,SSW,209,0.0,0.0,89,0.00,,,0.01,Wunderground v.1.13,2013-09-30 23:27:00,
2013-09-30 19:33:00,52.8,49.6,30.02,SSW,209,0.0,0.0,89,0.00,,,0.01,Wunderground v.1.13,2013-09-30 23:33:00,
2013-09-30 19:38:00,52.6,49.4,30.02,SSW,209,0.0,0.0,89,0.00,,,0.01,Wunderground v.1.13,2013-09-30 23:38:00,
2013-09-30 19:43:00,52.4,49.3,30.02,SSW,209,0.0,0.0,89,0.00,,,0.01,Wunderground v.1.13,2013-09-30 23:43:00,
2013-09-30 19:48:00,52.1,49.0,30.02,SSW,209,0.0,0.0,89,0.00,,,0.01,Wunderground v.1.13,2013-09-30 23:48:00,
2013-09-30 19:53:00,51.8,48.7,30.02,SSW,209,0.0,0.0,89,0.00,,,0.01,Wunderground v.1.13,2013-09-30 23:53:00,
2013-09-30 19:58:00,51.6,48.8,30.02,SSW,209,0.0,0.0,90,0.00,,,0.01,Wunderground v.1.13,2013-09-30 23:58:00,
2013-09-30 20:03:00,51.5,48.7,30.03,SSW,209,0.0,0.0,90,0.00,,,0.01,Wunderground v.1.13,2013-10-01 00:03:00,
2013-09-30 20:08:00,51.2,48.4,30.03,SSW,209,0.0,0.0,90,0.00,,,0.01,Wunderground v.1.13,2013-10-01 00:08:00,
2013-09-30 20:13:00,51.1,48.3,30.03,SSW,209,0.0,0.0,90,0.00,,,0.01,Wunderground v.1.13,2013-10-01 00:13:00,
2013-09-30 20:18:00,51.0,48.2,30.03,SSW,209,0.0,0.0,90,0.00,,,0.01,Wunderground v.1.13,2013-10-01 00:18:00,
2013-09-30 20:23:00,50.8,48.3,30.03,SSW,209,0.0,0.0,91,0.00,,,0.01,Wunderground v.1.13,2013-10-01 00:23:00,
2013-09-30 20:28:00,50.7,48.2,30.03,SSW,209,0.0,0.0,91,0.00,,,0.01,Wunderground v.1.13,2013-10-01 00:28:00,
2013-09-30 20:33:00,50.7,48.2,30.03,SSW,209,0.0,0.0,91,0.00,,,0.01,Wunderground v.1.13,2013-10-01 00:33:00,
2013-09-30 20:38:00,50.6,48.1,30.04,SSW,209,0.0,0.0,91,0.00,,,0.01,Wunderground v.1.13,2013-10-01 00:38:00,
2013-09-30 20:43:00,50.4,47.9,30.03,SSW,209,0.0,0.0,91,0.00,,,0.01,Wunderground v.1.13,2013-10-01 00:43:00,
2013-09-30 20:48:00,50.3,47.8,30.03,SSW,209,0.0,0.0,91,0.00,,,0.01,Wunderground v.1.13,2013-10-01 00:48:00,
2013-09-30 20:53:00,50.2,47.7,30.03,SSW,209,0.0,0.0,91,0.00,,,0.01,Wunderground v.1.13,2013-10-01 00:53:00,
2013-09-30 20:58:00,50.1,47.6,30.03,SSW,209,0.0,0.0,91,0.00,,,0.01,Wunderground v.1.13,2013-10-01 00:58:00,
2013-09-30 21:03:00,50.0,48.6,30.03,SSW,209,0.0,0.0,95,0.00,,,0.01,Wunderground v.1.13,2013-10-01 01:03:00,
2013-09-30 21:08:00,49.9,47.4,30.03,SSW,209,0.0,0.0,91,0.00,,,0.01,Wunderground v.1.13,2013-10-01 01:08:00,
2013-09-30 21:13:00,49.6,47.1,30.03,SSW,209,0.0,0.0,91,0.00,,,0.01,Wunderground v.1.13,2013-10-01 01:13:00,
2013-09-30 21:18:00,49.5,47.0,30.03,SSW,209,0.0,0.0,91,0.00,,,0.01,Wunderground v.1.13,2013-10-01 01:18:00,
2013-09-30 21:23:00,49.2,46.7,30.03,SSW,209,0.0,0.0,91,0.00,,,0.01,Wunderground v.1.13,2013-10-01 01:23:00,
2013-09-30 21:28:00,49.2,46.7,30.03,SSW,209,0.0,0.0,91,0.00,,,0.01,Wunderground v.1.13,2013-10-01 01:28:00,
2013-09-30 21:33:00,49.1,46.6,30.03,SSW,209,0.0,0.0,91,0.00,,,0.01,Wunderground v.1.13,2013-10-01 01:33:00,
2013-09-30 21:38:00,48.8,46.6,30.03,SSW,209,0.0,0.0,92,0.00,,,0.01,Wunderground v.1.13,2013-10-01 01:38:00,
2013-09-30 21:43:00,48.6,46.1,30.03,SSW,209,0.0,0.0,91,0.00,,,0.01,Wunderground v.1.13,2013-10-01 01:43:00,
2013-09-30 21:48:00,48.5,46.0,30.03,SSW,209,0.0,0.0,91,0.00,,,0.01,Wunderground v.1.13,2013-10-01 01:48:00,
2013-09-30 21:53:00,48.5,46.3,30.03,SSW,209,0.0,0.0,92,0.00,,,0.01,Wunderground v.1.13,2013-10-01 01:53:00,
2013-09-30 21:58:00,48.7,46.5,30.03,SSW,209,0.0,0.0,92,0.00,,,0.01,Wunderground v.1.13,2013-10-01 01:58:00,
2013-09-30 22:03:00,48.7,46.5,30.03,SSW,209,0.0,0.0,92,0.00,,,0.01,Wunderground v.1.13,2013-10-01 02:03:00,
2013-09-30 22:08:00,48.4,46.2,30.03,SSW,209,0.0,0.0,92,0.00,,,0.01,Wunderground v.1.13,2013-10-01 02:08:00,
2013-09-30 22:13:00,48.2,47.1,30.03,SSW,209,0.0,0.0,96,0.00,,,0.01,Wunderground v.1.13,2013-10-01 02:13:00,
2013-09-30 22:18:00,48.0,45.8,30.03,SSW,209,0.0,0.0,92,0.00,,,0.01,Wunderground v.1.13,2013-10-01 02:18:00,
2013-09-30 22:23:00,47.8,45.6,30.03,SSW,209,0.0,0.0,92,0.00,,,0.01,Wunderground v.1.13,2013-10-01 02:23:00,
2013-09-30 22:28:00,47.5,45.3,30.03,SSW,209,0.0,0.0,92,0.00,,,0.01,Wunderground v.1.13,2013-10-01 02:28:00,
2013-09-30 22:33:00,47.3,45.1,30.03,SSW,209,0.0,0.0,92,0.00,,,0.01,Wunderground v.1.13,2013-10-01 02:33:00,
2013-09-30 22:38:00,47.1,44.9,30.03,SSW,209,0.0,0.0,92,0.00,,,0.01,Wunderground v.1.13,2013-10-01 02:38:00,
2013-09-30 22:43:00,47.0,44.8,30.03,SSW,209,0.0,0.0,92,0.00,,,0.01,Wunderground v.1.13,2013-10-01 02:43:00,
2013-09-30 22:48:00,47.0,44.8,30.03,SSW,209,0.0,0.0,92,0.00,,,0.01,Wunderground v.1.13,2013-10-01 02:48:00,
2013-09-30 22:53:00,46.9,44.7,30.03,SSW,209,0.0,0.0,92,0.00,,,0.01,Wunderground v.1.13,2013-10-01 02:53:00,
2013-09-30 22:59:00,46.7,44.5,30.03,SSW,209,0.0,0.0,92,0.00,,,0.01,Wunderground v.1.13,2013-10-01 02:59:00,
2013-09-30 23:04:00,46.5,44.3,30.03,SSW,209,0.0,0.0,92,0.00,,,0.01,Wunderground v.1.13,2013-10-01 03:04:00,
2013-09-30 23:09:00,46.4,44.2,30.03,SSW,209,0.0,0.0,92,0.00,,,0.01,Wunderground v.1.13,2013-10-01 03:09:00,
2013-09-30 23:14:00,46.2,44.0,30.03,SSW,209,0.0,0.0,92,0.00,,,0.01,Wunderground v.1.13,2013-10-01 03:14:00,
2013-09-30 23:19:00,46.0,43.8,30.03,SSW,209,0.0,0.0,92,0.00,,,0.01,Wunderground v.1.13,2013-10-01 03:19:00,
2013-09-30 23:24:00,45.7,43.5,30.03,SSW,209,0.0,0.0,92,0.00,,,0.01,Wunderground v.1.13,2013-10-01 03:24:00,
2013-09-30 23:29:00,45.6,43.4,30.03,SSW,209,0.0,0.0,92,0.00,,,0.01,Wunderground v.1.13,2013-10-01 03:29:00,
2013-09-30 23:34:00,45.7,43.5,30.03,SSW,209,0.0,0.0,92,0.00,,,0.01,Wunderground v.1.13,2013-10-01 03:34:00,
2013-09-30 23:39:00,45.6,43.4,30.03,SSW,209,0.0,0.0,92,0.00,,,0.01,Wunderground v.1.13,2013-10-01 03:39:00,
2013-09-30 23:44:00,45.7,43.5,30.03,SSW,209,0.0,0.0,92,0.00,,,0.01,Wunderground v.1.13,2013-10-01 03:44:00,
2013-09-30 23:49:00,45.5,43.3,30.03,SSW,209,0.0,0.0,92,0.00,,,0.01,Wunderground v.1.13,2013-10-01 03:49:00,
2013-09-30 23:54:00,45.3,43.1,30.03,SSW,209,0.0,0.0,92,0.00,,,0.01,Wunderground v.1.13,2013-10-01 03:54:00,
2013-09-30 23:59:00,45.2,43.0,30.03,SSW,209,0.0,0.0,92,0.00,,,0.01,Wunderground v.1.13,2013-10-01 03:59:00,